Susquehanna — WDD9976 — position and weather

sailwx.info

Track history (hours):
 
Tides and Currents Weather Stations Pressure Air Temp Water Temp Dewpoint Dewpoint Depression Visibility Wind Speed Wind Dir Waves Ship Positions

Susquehanna

Owner: Vane Line Bunkering, Inc., Baltimore, MD. More information available from US FCC via Universal Licensing System and Coast Guard Vessel Documentation Center.

Last reported at 2015-Aug-29 12:32 UTC. Time now 2015-Aug-29 12:44 UTC.
Position N 40°40' W 074°00'.

Length 28 m; draft 4.2 m.

Type: Tug. MMSI: 367318750.

Date/timePositionNaut miles runAvg speedWind from/ knotsBaromVisibWave heightAir tempDewpointWater temp
2015-Aug-29 12:32N 40°40' W 074°00'0 0.0
2015-Aug-29 11:33N 40°40' W 074°00'0 0.0
2015-Aug-29 10:33N 40°40' W 074°00'0 0.0
2015-Aug-29 09:31N 40°40' W 074°00'0 0.3
2015-Aug-29 08:32N 40°40' W 074°00'0 0.0
2015-Aug-29 07:32N 40°40' W 074°00'0 0.0
2015-Aug-29 06:33N 40°40' W 074°00'0 0.0
2015-Aug-29 05:31N 40°40' W 074°00'0 0.0
2015-Aug-29 04:31N 40°40' W 074°00'3 2.7
2015-Aug-29 03:34N 40°39' W 074°04'7 5.7
2015-Aug-29 02:24N 40°38' W 074°12'3 3.6
2015-Aug-29 01:33N 40°39' W 074°08'4 4.4
2015-Aug-29 00:34N 40°39' W 074°03'0 0.0
2015-Aug-28 23:34N 40°39' W 074°03'0 0.0
2015-Aug-28 22:34N 40°39' W 074°02'0 0.0
2015-Aug-28 21:34N 40°39' W 074°02'0 0.0
2015-Aug-28 20:34N 40°39' W 074°02'0 0.2
2015-Aug-28 19:34N 40°39' W 074°03'0 0.0
2015-Aug-28 18:34N 40°39' W 074°03'0 0.0
2015-Aug-28 17:34N 40°39' W 074°03'0 0.0
2015-Aug-28 16:34N 40°39' W 074°03'0 0.0
2015-Aug-28 15:34N 40°39' W 074°03'0 0.0
2015-Aug-28 14:34N 40°39' W 074°03'0 0.4
2015-Aug-28 13:33N 40°39' W 074°02'8 7.9
2015-Aug-28 12:34N 40°46' W 073°57'7 6.5
2015-Aug-28 11:33N 40°48' W 073°49'7 6.5
2015-Aug-28 10:32N 40°53' W 073°43'9 7.3
2015-Aug-28 09:14N 40°57' W 073°32'5 7.0
2015-Aug-28 08:32N 40°60' W 073°26'7 6.8
2015-Aug-28 07:33N 41°02' W 073°18'7 6.9
2015-Aug-28 06:34N 41°04' W 073°09'7 6.5
2015-Aug-28 05:33N 41°08' W 073°02'7 6.8
2015-Aug-28 04:34N 41°12' W 072°55'6 5.7
2015-Aug-28 03:34N 41°18' W 072°54'0 0.3
2015-Aug-28 02:31N 41°18' W 072°54'0 0.0
2015-Aug-28 01:33N 41°18' W 072°54'0 0.0
2015-Aug-27 14:33N 41°17' W 072°55'4 3.7
2015-Aug-27 13:31N 41°14' W 072°55'6 6.6
2015-Aug-27 12:33N 41°09' W 073°00'7 7.2
2015-Aug-27 11:34N 41°05' W 073°08'7 7.2
2015-Aug-27 10:34N 41°02' W 073°17'7 7.4
2015-Aug-27 09:34N 40°60' W 073°26'8 7.9
2015-Aug-27 08:34N 40°56' W 073°36'8 8.2
2015-Aug-27 07:34N 40°52' W 073°45'7 6.9
2015-Aug-27 06:33N 40°48' W 073°52'6 5.6
2015-Aug-27 05:34N 40°45' W 073°58'5 5.2
2015-Aug-27 04:34N 40°40' W 074°02'7 6.7
2015-Aug-27 03:33N 40°39' W 074°11'6 4.8
2015-Aug-27 02:19N 40°33' W 074°14'3 3.0
2015-Aug-27 01:15N 40°36' W 074°12'5 7.1
2015-Aug-27 00:34N 40°40' W 074°08'1 1.3
2015-Aug-26 23:33N 40°41' W 074°09'1 1.5
2015-Aug-26 22:34N 40°40' W 074°08'4 4.3
2015-Aug-26 21:34N 40°39' W 074°03'2 2.1
2015-Aug-26 20:34N 40°40' W 074°00'0 0.0
2015-Aug-26 19:33N 40°40' W 074°00'0 0.0
2015-Aug-26 18:34N 40°40' W 074°00'0 0.0
2015-Aug-26 17:34N 40°40' W 074°00'0 0.3
2015-Aug-26 16:34N 40°40' W 074°00'0 0.0
2015-Aug-26 15:34N 40°40' W 074°00'0 0.0
2015-Aug-26 14:34N 40°40' W 074°00'0 0.3
2015-Aug-26 13:34N 40°40' W 074°00'3 2.8
2015-Aug-26 12:34N 40°40' W 074°04'3 3.0
2015-Aug-26 11:34N 40°40' W 074°00'6 5.9
2015-Aug-26 10:34N 40°39' W 074°08'4 1.6
2015-Aug-26 08:08N 40°37' W 074°12'3 5.7
2015-Aug-26 07:32N 40°39' W 074°08'4 4.5
2015-Aug-26 06:33N 40°39' W 074°03'0 0.1
2015-Aug-26 05:31N 40°39' W 074°03'0 0.0
2015-Aug-26 04:32N 40°39' W 074°03'0 0.0
2015-Aug-26 03:32N 40°39' W 074°03'0 0.0
2015-Aug-26 02:33N 40°39' W 074°03'0 0.0
2015-Aug-26 01:31N 40°39' W 074°03'0 0.0
2015-Aug-26 00:31N 40°39' W 074°03'0 0.0
2015-Aug-25 23:32N 40°39' W 074°03'0 0.1
2015-Aug-25 22:33N 40°39' W 074°03'0 0.0
2015-Aug-25 21:33N 40°39' W 074°03'0 0.0
2015-Aug-25 20:31N 40°39' W 074°03'0 0.0
2015-Aug-25 19:32N 40°39' W 074°03'0 0.0
2015-Aug-25 18:32N 40°39' W 074°03'0 0.0
2015-Aug-25 17:33N 40°39' W 074°03'0 0.1
2015-Aug-25 16:33N 40°39' W 074°03'0 0.0
2015-Aug-25 15:31N 40°39' W 074°03'0 0.0
2015-Aug-25 14:32N 40°39' W 074°03'0 0.0
2015-Aug-25 13:32N 40°39' W 074°03'0 0.0
2015-Aug-25 12:33N 40°39' W 074°03'0 0.1
2015-Aug-25 11:31N 40°39' W 074°03'0 0.1
2015-Aug-25 10:31N 40°39' W 074°03'0 0.0
2015-Aug-25 09:32N 40°39' W 074°03'0 0.0
2015-Aug-25 08:33N 40°39' W 074°03'0 0.0
2015-Aug-25 07:33N 40°39' W 074°03'0 0.0
2015-Aug-25 06:31N 40°39' W 074°03'0 0.0
2015-Aug-25 05:32N 40°39' W 074°03'0 0.1
2015-Aug-25 04:32N 40°39' W 074°03'0 0.0
2015-Aug-25 03:33N 40°39' W 074°03'0 0.0
2015-Aug-25 02:33N 40°39' W 074°03'0 0.1
2015-Aug-25 01:31N 40°39' W 074°03'0 0.0
2015-Aug-25 00:32N 40°39' W 074°03'0 0.0
2015-Aug-24 23:32N 40°39' W 074°03'0 0.0
2015-Aug-24 22:33N 40°39' W 074°03'0 0.0
2015-Aug-24 21:31N 40°39' W 074°03'0 0.0
2015-Aug-24 20:31N 40°39' W 074°03'0 0.0
2015-Aug-24 19:32N 40°39' W 074°03'0 0.0
2015-Aug-24 18:33N 40°39' W 074°03'0 0.0
2015-Aug-24 17:33N 40°39' W 074°03'0 0.0
2015-Aug-24 16:31N 40°39' W 074°03'0 0.1
2015-Aug-24 15:32N 40°39' W 074°03'0 0.0
2015-Aug-24 14:32N 40°39' W 074°03'0 0.0
2015-Aug-24 13:33N 40°39' W 074°03'0 0.0
2015-Aug-24 12:31N 40°39' W 074°03'0 0.0
2015-Aug-24 11:31N 40°39' W 074°03'0 0.0
2015-Aug-24 10:32N 40°39' W 074°03'0 0.0
2015-Aug-24 09:32N 40°39' W 074°03'0 0.0
2015-Aug-24 08:33N 40°39' W 074°03'0 0.0
2015-Aug-24 07:31N 40°39' W 074°03'0 0.0
2015-Aug-24 06:31N 40°39' W 074°03'0 0.0
2015-Aug-24 05:32N 40°39' W 074°03'0 0.1
2015-Aug-24 04:33N 40°39' W 074°03'0 0.0
2015-Aug-24 03:33N 40°39' W 074°03'0 0.0
2015-Aug-24 02:31N 40°39' W 074°03'0 0.0
2015-Aug-24 01:32N 40°39' W 074°03'0 0.0
2015-Aug-24 00:32N 40°39' W 074°03'0 0.1
2015-Aug-23 23:33N 40°39' W 074°03'0 0.1
2015-Aug-23 22:34N 40°39' W 074°03'0 0.0
2015-Aug-23 21:31N 40°39' W 074°03'0 0.0
2015-Aug-23 20:32N 40°39' W 074°03'0 0.0
2015-Aug-23 19:32N 40°39' W 074°03'0 0.0
2015-Aug-23 18:33N 40°39' W 074°03'0 0.0
2015-Aug-23 17:31N 40°39' W 074°03'0 0.0
2015-Aug-23 16:31N 40°39' W 074°03'0 0.0
2015-Aug-23 15:32N 40°39' W 074°03'0 0.0
2015-Aug-23 14:30N 40°39' W 074°03'0 0.0
2015-Aug-23 13:33N 40°39' W 074°03'0 0.0
2015-Aug-23 12:31N 40°39' W 074°03'0 0.0
2015-Aug-23 11:32N 40°39' W 074°03'0 0.0
2015-Aug-23 10:32N 40°39' W 074°03'0 0.0
2015-Aug-23 09:33N 40°39' W 074°03'0 0.0
2015-Aug-23 08:33N 40°39' W 074°03'0 0.0
2015-Aug-23 07:31N 40°39' W 074°03'0 0.1
2015-Aug-23 06:32N 40°39' W 074°03'0 0.1
2015-Aug-23 05:32N 40°39' W 074°03'0 0.0
2015-Aug-23 04:33N 40°39' W 074°03'0 0.1
2015-Aug-23 03:33N 40°39' W 074°03'1 0.8
2015-Aug-23 02:33N 40°38' W 074°03'1 1.0
2015-Aug-23 01:33N 40°39' W 074°03'0 0.0
2015-Aug-23 00:31N 40°39' W 074°03'0 0.0
2015-Aug-22 23:31N 40°39' W 074°03'0 0.0
2015-Aug-22 22:32N 40°39' W 074°03'0 0.0
2015-Aug-22 21:32N 40°39' W 074°03'0 0.1
2015-Aug-22 20:30N 40°39' W 074°03'0 0.1
2015-Aug-22 19:33N 40°39' W 074°03'0 0.0
2015-Aug-22 18:31N 40°39' W 074°03'0 0.1
2015-Aug-22 17:32N 40°39' W 074°03'0 0.1
2015-Aug-22 16:32N 40°39' W 074°03'0 0.0
2015-Aug-22 15:33N 40°39' W 074°03'0 0.0
2015-Aug-22 14:31N 40°39' W 074°03'0 0.0
2015-Aug-22 13:31N 40°39' W 074°03'0 0.0
2015-Aug-22 12:32N 40°39' W 074°03'0 0.0
2015-Aug-22 11:33N 40°39' W 074°03'0 0.0
2015-Aug-22 10:33N 40°39' W 074°03'0 0.0
2015-Aug-22 09:31N 40°39' W 074°03'0 0.0
2015-Aug-22 08:32N 40°39' W 074°03'0 0.0
2015-Aug-22 07:32N 40°39' W 074°03'0 0.0
2015-Aug-22 06:33N 40°39' W 074°03'0 0.0
2015-Aug-22 05:31N 40°39' W 074°03'0 0.0
2015-Aug-22 04:31N 40°39' W 074°03'0 0.0
2015-Aug-22 03:32N 40°39' W 074°03'0 0.0
2015-Aug-22 02:33N 40°39' W 074°03'0 0.0
2015-Aug-22 01:33N 40°39' W 074°03'0 0.0
2015-Aug-22 00:31N 40°39' W 074°03'0 0.0
2015-Aug-21 23:31N 40°39' W 074°03'0 0.0
2015-Aug-21 22:32N 40°39' W 074°03'0 0.0
2015-Aug-21 21:33N 40°39' W 074°03'0 0.0
2015-Aug-21 20:33N 40°39' W 074°03'2 2.1
2015-Aug-21 19:31N 40°40' W 074°00'2 2.2
2015-Aug-21 18:33N 40°39' W 074°03'0 0.1
2015-Aug-21 17:31N 40°39' W 074°03'0 0.0
2015-Aug-21 16:32N 40°39' W 074°03'0 0.0
2015-Aug-21 15:32N 40°39' W 074°03'0 0.0
2015-Aug-21 14:33N 40°39' W 074°03'0 0.0
2015-Aug-21 13:31N 40°39' W 074°03'0 0.0
2015-Aug-21 12:31N 40°39' W 074°03'0 0.0
2015-Aug-21 11:32N 40°39' W 074°03'0 0.0
2015-Aug-21 10:32N 40°39' W 074°03'0 0.0
2015-Aug-21 09:33N 40°39' W 074°03'0 0.1
2015-Aug-21 08:31N 40°39' W 074°03'0 0.1
2015-Aug-21 07:31N 40°39' W 074°03'0 0.1
2015-Aug-21 06:32N 40°40' W 074°03'0 0.0
2015-Aug-21 05:33N 40°40' W 074°03'0 0.0
2015-Aug-21 04:33N 40°40' W 074°03'0 0.0
2015-Aug-21 03:31N 40°40' W 074°03'0 0.0
2015-Aug-21 02:32N 40°40' W 074°03'0 0.0
2015-Aug-21 01:32N 40°39' W 074°03'0 0.0
2015-Aug-21 00:33N 40°39' W 074°03'0 0.0
2015-Aug-20 23:31N 40°39' W 074°03'0 0.0
2015-Aug-20 22:31N 40°39' W 074°03'0 0.0
2015-Aug-20 21:32N 40°39' W 074°03'0 0.2
2015-Aug-20 20:33N 40°40' W 074°03'4 4.3
2015-Aug-20 19:34N 40°43' W 073°59'8 7.8
2015-Aug-20 18:33N 40°48' W 073°51'10 7.7
2015-Aug-20 17:17N 40°54' W 073°41'15 8.8
2015-Aug-20 15:34N 41°01' W 073°23'14 9.4
2015-Aug-20 14:06N 41°02' W 073°05'5 9.2
2015-Aug-20 13:33N 41°03' W 072°58'22 9.0
2015-Aug-20 11:10N 41°09' W 072°31'5 8.1
2015-Aug-20 10:33N 41°10' W 072°25'8 7.4
2015-Aug-20 09:32N 41°12' W 072°15'8 7.8
2015-Aug-20 08:30N 41°14' W 072°05'42 7.8
2015-Aug-20 03:09N 41°37' W 071°18'5 8.9
2015-Aug-20 02:33N 41°42' W 071°20'7 7.2
2015-Aug-20 01:33N 41°49' W 071°24'0 0.0
2015-Aug-19 13:06N 41°49' W 071°24'  
Track history (hours):
 
Tides and Currents Weather Stations Pressure Air Temp Water Temp Dewpoint Dewpoint Depression Visibility Wind Speed Wind Dir Waves Ship Positions

Susquehanna

Owner: Vane Line Bunkering, Inc., Baltimore, MD. More information available from US FCC via Universal Licensing System and Coast Guard Vessel Documentation Center.

Last reported at 2015-Aug-29 12:32 UTC. Time now 2015-Aug-29 12:44 UTC.
Position N 40°40' W 074°00'.

Length 28 m; draft 4.2 m.

Type: Tug. MMSI: 367318750.

Date/timePositionNaut miles runAvg speedWind from/ knotsBaromVisibWave heightAir tempDewpointWater temp
2015-Aug-29 12:32N 40°40' W 074°00'0 0.0
2015-Aug-29 11:33N 40°40' W 074°00'0 0.0
2015-Aug-29 10:33N 40°40' W 074°00'0 0.0
2015-Aug-29 09:31N 40°40' W 074°00'0 0.3
2015-Aug-29 08:32N 40°40' W 074°00'0 0.0
2015-Aug-29 07:32N 40°40' W 074°00'0 0.0
2015-Aug-29 06:33N 40°40' W 074°00'0 0.0
2015-Aug-29 05:31N 40°40' W 074°00'0 0.0
2015-Aug-29 04:31N 40°40' W 074°00'3 2.7
2015-Aug-29 03:34N 40°39' W 074°04'7 5.7
2015-Aug-29 02:24N 40°38' W 074°12'3 3.6
2015-Aug-29 01:33N 40°39' W 074°08'4 4.4
2015-Aug-29 00:34N 40°39' W 074°03'0 0.0
2015-Aug-28 23:34N 40°39' W 074°03'0 0.0
2015-Aug-28 22:34N 40°39' W 074°02'0 0.0
2015-Aug-28 21:34N 40°39' W 074°02'0 0.0
2015-Aug-28 20:34N 40°39' W 074°02'0 0.2
2015-Aug-28 19:34N 40°39' W 074°03'0 0.0
2015-Aug-28 18:34N 40°39' W 074°03'0 0.0
2015-Aug-28 17:34N 40°39' W 074°03'0 0.0
2015-Aug-28 16:34N 40°39' W 074°03'0 0.0
2015-Aug-28 15:34N 40°39' W 074°03'0 0.0
2015-Aug-28 14:34N 40°39' W 074°03'0 0.4
2015-Aug-28 13:33N 40°39' W 074°02'8 7.9
2015-Aug-28 12:34N 40°46' W 073°57'7 6.5
2015-Aug-28 11:33N 40°48' W 073°49'7 6.5
2015-Aug-28 10:32N 40°53' W 073°43'9 7.3
2015-Aug-28 09:14N 40°57' W 073°32'5 7.0
2015-Aug-28 08:32N 40°60' W 073°26'7 6.8
2015-Aug-28 07:33N 41°02' W 073°18'7 6.9
2015-Aug-28 06:34N 41°04' W 073°09'7 6.5
2015-Aug-28 05:33N 41°08' W 073°02'7 6.8
2015-Aug-28 04:34N 41°12' W 072°55'6 5.7
2015-Aug-28 03:34N 41°18' W 072°54'0 0.3
2015-Aug-28 02:31N 41°18' W 072°54'0 0.0
2015-Aug-28 01:33N 41°18' W 072°54'0 0.0
2015-Aug-27 14:33N 41°17' W 072°55'4 3.7
2015-Aug-27 13:31N 41°14' W 072°55'6 6.6
2015-Aug-27 12:33N 41°09' W 073°00'7 7.2
2015-Aug-27 11:34N 41°05' W 073°08'7 7.2
2015-Aug-27 10:34N 41°02' W 073°17'7 7.4
2015-Aug-27 09:34N 40°60' W 073°26'8 7.9
2015-Aug-27 08:34N 40°56' W 073°36'8 8.2
2015-Aug-27 07:34N 40°52' W 073°45'7 6.9
2015-Aug-27 06:33N 40°48' W 073°52'6 5.6
2015-Aug-27 05:34N 40°45' W 073°58'5 5.2
2015-Aug-27 04:34N 40°40' W 074°02'7 6.7
2015-Aug-27 03:33N 40°39' W 074°11'6 4.8
2015-Aug-27 02:19N 40°33' W 074°14'3 3.0
2015-Aug-27 01:15N 40°36' W 074°12'5 7.1
2015-Aug-27 00:34N 40°40' W 074°08'1 1.3
2015-Aug-26 23:33N 40°41' W 074°09'1 1.5
2015-Aug-26 22:34N 40°40' W 074°08'4 4.3
2015-Aug-26 21:34N 40°39' W 074°03'2 2.1
2015-Aug-26 20:34N 40°40' W 074°00'0 0.0
2015-Aug-26 19:33N 40°40' W 074°00'0 0.0
2015-Aug-26 18:34N 40°40' W 074°00'0 0.0
2015-Aug-26 17:34N 40°40' W 074°00'0 0.3
2015-Aug-26 16:34N 40°40' W 074°00'0 0.0
2015-Aug-26 15:34N 40°40' W 074°00'0 0.0
2015-Aug-26 14:34N 40°40' W 074°00'0 0.3
2015-Aug-26 13:34N 40°40' W 074°00'3 2.8
2015-Aug-26 12:34N 40°40' W 074°04'3 3.0
2015-Aug-26 11:34N 40°40' W 074°00'6 5.9
2015-Aug-26 10:34N 40°39' W 074°08'4 1.6
2015-Aug-26 08:08N 40°37' W 074°12'3 5.7
2015-Aug-26 07:32N 40°39' W 074°08'4 4.5
2015-Aug-26 06:33N 40°39' W 074°03'0 0.1
2015-Aug-26 05:31N 40°39' W 074°03'0 0.0
2015-Aug-26 04:32N 40°39' W 074°03'0 0.0
2015-Aug-26 03:32N 40°39' W 074°03'0 0.0
2015-Aug-26 02:33N 40°39' W 074°03'0 0.0
2015-Aug-26 01:31N 40°39' W 074°03'0 0.0
2015-Aug-26 00:31N 40°39' W 074°03'0 0.0
2015-Aug-25 23:32N 40°39' W 074°03'0 0.1
2015-Aug-25 22:33N 40°39' W 074°03'0 0.0
2015-Aug-25 21:33N 40°39' W 074°03'0 0.0
2015-Aug-25 20:31N 40°39' W 074°03'0 0.0
2015-Aug-25 19:32N 40°39' W 074°03'0 0.0
2015-Aug-25 18:32N 40°39' W 074°03'0 0.0
2015-Aug-25 17:33N 40°39' W 074°03'0 0.1
2015-Aug-25 16:33N 40°39' W 074°03'0 0.0
2015-Aug-25 15:31N 40°39' W 074°03'0 0.0
2015-Aug-25 14:32N 40°39' W 074°03'0 0.0
2015-Aug-25 13:32N 40°39' W 074°03'0 0.0
2015-Aug-25 12:33N 40°39' W 074°03'0 0.1
2015-Aug-25 11:31N 40°39' W 074°03'0 0.1
2015-Aug-25 10:31N 40°39' W 074°03'0 0.0
2015-Aug-25 09:32N 40°39' W 074°03'0 0.0
2015-Aug-25 08:33N 40°39' W 074°03'0 0.0
2015-Aug-25 07:33N 40°39' W 074°03'0 0.0
2015-Aug-25 06:31N 40°39' W 074°03'0 0.0
2015-Aug-25 05:32N 40°39' W 074°03'0 0.1
2015-Aug-25 04:32N 40°39' W 074°03'0 0.0
2015-Aug-25 03:33N 40°39' W 074°03'0 0.0
2015-Aug-25 02:33N 40°39' W 074°03'0 0.1
2015-Aug-25 01:31N 40°39' W 074°03'0 0.0
2015-Aug-25 00:32N 40°39' W 074°03'0 0.0
2015-Aug-24 23:32N 40°39' W 074°03'0 0.0
2015-Aug-24 22:33N 40°39' W 074°03'0 0.0
2015-Aug-24 21:31N 40°39' W 074°03'0 0.0
2015-Aug-24 20:31N 40°39' W 074°03'0 0.0
2015-Aug-24 19:32N 40°39' W 074°03'0 0.0
2015-Aug-24 18:33N 40°39' W 074°03'0 0.0
2015-Aug-24 17:33N 40°39' W 074°03'0 0.0
2015-Aug-24 16:31N 40°39' W 074°03'0 0.1
2015-Aug-24 15:32N 40°39' W 074°03'0 0.0
2015-Aug-24 14:32N 40°39' W 074°03'0 0.0
2015-Aug-24 13:33N 40°39' W 074°03'0 0.0
2015-Aug-24 12:31N 40°39' W 074°03'0 0.0
2015-Aug-24 11:31N 40°39' W 074°03'0 0.0
2015-Aug-24 10:32N 40°39' W 074°03'0 0.0
2015-Aug-24 09:32N 40°39' W 074°03'0 0.0
2015-Aug-24 08:33N 40°39' W 074°03'0 0.0
2015-Aug-24 07:31N 40°39' W 074°03'0 0.0
2015-Aug-24 06:31N 40°39' W 074°03'0 0.0
2015-Aug-24 05:32N 40°39' W 074°03'0 0.1
2015-Aug-24 04:33N 40°39' W 074°03'0 0.0
2015-Aug-24 03:33N 40°39' W 074°03'0 0.0
2015-Aug-24 02:31N 40°39' W 074°03'0 0.0
2015-Aug-24 01:32N 40°39' W 074°03'0 0.0
2015-Aug-24 00:32N 40°39' W 074°03'0 0.1
2015-Aug-23 23:33N 40°39' W 074°03'0 0.1
2015-Aug-23 22:34N 40°39' W 074°03'0 0.0
2015-Aug-23 21:31N 40°39' W 074°03'0 0.0
2015-Aug-23 20:32N 40°39' W 074°03'0 0.0
2015-Aug-23 19:32N 40°39' W 074°03'0 0.0
2015-Aug-23 18:33N 40°39' W 074°03'0 0.0
2015-Aug-23 17:31N 40°39' W 074°03'0 0.0
2015-Aug-23 16:31N 40°39' W 074°03'0 0.0
2015-Aug-23 15:32N 40°39' W 074°03'0 0.0
2015-Aug-23 14:30N 40°39' W 074°03'0 0.0
2015-Aug-23 13:33N 40°39' W 074°03'0 0.0
2015-Aug-23 12:31N 40°39' W 074°03'0 0.0
2015-Aug-23 11:32N 40°39' W 074°03'0 0.0
2015-Aug-23 10:32N 40°39' W 074°03'0 0.0
2015-Aug-23 09:33N 40°39' W 074°03'0 0.0
2015-Aug-23 08:33N 40°39' W 074°03'0 0.0
2015-Aug-23 07:31N 40°39' W 074°03'0 0.1
2015-Aug-23 06:32N 40°39' W 074°03'0 0.1
2015-Aug-23 05:32N 40°39' W 074°03'0 0.0
2015-Aug-23 04:33N 40°39' W 074°03'0 0.1
2015-Aug-23 03:33N 40°39' W 074°03'1 0.8
2015-Aug-23 02:33N 40°38' W 074°03'1 1.0
2015-Aug-23 01:33N 40°39' W 074°03'0 0.0
2015-Aug-23 00:31N 40°39' W 074°03'0 0.0
2015-Aug-22 23:31N 40°39' W 074°03'0 0.0
2015-Aug-22 22:32N 40°39' W 074°03'0 0.0
2015-Aug-22 21:32N 40°39' W 074°03'0 0.1
2015-Aug-22 20:30N 40°39' W 074°03'0 0.1
2015-Aug-22 19:33N 40°39' W 074°03'0 0.0
2015-Aug-22 18:31N 40°39' W 074°03'0 0.1
2015-Aug-22 17:32N 40°39' W 074°03'0 0.1
2015-Aug-22 16:32N 40°39' W 074°03'0 0.0
2015-Aug-22 15:33N 40°39' W 074°03'0 0.0
2015-Aug-22 14:31N 40°39' W 074°03'0 0.0
2015-Aug-22 13:31N 40°39' W 074°03'0 0.0
2015-Aug-22 12:32N 40°39' W 074°03'0 0.0
2015-Aug-22 11:33N 40°39' W 074°03'0 0.0
2015-Aug-22 10:33N 40°39' W 074°03'0 0.0
2015-Aug-22 09:31N 40°39' W 074°03'0 0.0
2015-Aug-22 08:32N 40°39' W 074°03'0 0.0
2015-Aug-22 07:32N 40°39' W 074°03'0 0.0
2015-Aug-22 06:33N 40°39' W 074°03'0 0.0
2015-Aug-22 05:31N 40°39' W 074°03'0 0.0
2015-Aug-22 04:31N 40°39' W 074°03'0 0.0
2015-Aug-22 03:32N 40°39' W 074°03'0 0.0
2015-Aug-22 02:33N 40°39' W 074°03'0 0.0
2015-Aug-22 01:33N 40°39' W 074°03'0 0.0
2015-Aug-22 00:31N 40°39' W 074°03'0 0.0
2015-Aug-21 23:31N 40°39' W 074°03'0 0.0
2015-Aug-21 22:32N 40°39' W 074°03'0 0.0
2015-Aug-21 21:33N 40°39' W 074°03'0 0.0
2015-Aug-21 20:33N 40°39' W 074°03'2 2.1
2015-Aug-21 19:31N 40°40' W 074°00'2 2.2
2015-Aug-21 18:33N 40°39' W 074°03'0 0.1
2015-Aug-21 17:31N 40°39' W 074°03'0 0.0
2015-Aug-21 16:32N 40°39' W 074°03'0 0.0
2015-Aug-21 15:32N 40°39' W 074°03'0 0.0
2015-Aug-21 14:33N 40°39' W 074°03'0 0.0
2015-Aug-21 13:31N 40°39' W 074°03'0 0.0
2015-Aug-21 12:31N 40°39' W 074°03'0 0.0
2015-Aug-21 11:32N 40°39' W 074°03'0 0.0
2015-Aug-21 10:32N 40°39' W 074°03'0 0.0
2015-Aug-21 09:33N 40°39' W 074°03'0 0.1
2015-Aug-21 08:31N 40°39' W 074°03'0 0.1
2015-Aug-21 07:31N 40°39' W 074°03'0 0.1
2015-Aug-21 06:32N 40°40' W 074°03'0 0.0
2015-Aug-21 05:33N 40°40' W 074°03'0 0.0
2015-Aug-21 04:33N 40°40' W 074°03'0 0.0
2015-Aug-21 03:31N 40°40' W 074°03'0 0.0
2015-Aug-21 02:32N 40°40' W 074°03'0 0.0
2015-Aug-21 01:32N 40°39' W 074°03'0 0.0
2015-Aug-21 00:33N 40°39' W 074°03'0 0.0
2015-Aug-20 23:31N 40°39' W 074°03'0 0.0
2015-Aug-20 22:31N 40°39' W 074°03'0 0.0
2015-Aug-20 21:32N 40°39' W 074°03'0 0.2
2015-Aug-20 20:33N 40°40' W 074°03'4 4.3
2015-Aug-20 19:34N 40°43' W 073°59'8 7.8
2015-Aug-20 18:33N 40°48' W 073°51'10 7.7
2015-Aug-20 17:17N 40°54' W 073°41'15 8.8
2015-Aug-20 15:34N 41°01' W 073°23'14 9.4
2015-Aug-20 14:06N 41°02' W 073°05'5 9.2
2015-Aug-20 13:33N 41°03' W 072°58'22 9.0
2015-Aug-20 11:10N 41°09' W 072°31'5 8.1
2015-Aug-20 10:33N 41°10' W 072°25'8 7.4
2015-Aug-20 09:32N 41°12' W 072°15'8 7.8
2015-Aug-20 08:30N 41°14' W 072°05'42 7.8
2015-Aug-20 03:09N 41°37' W 071°18'5 8.9
2015-Aug-20 02:33N 41°42' W 071°20'7 7.2
2015-Aug-20 01:33N 41°49' W 071°24'0 0.0
2015-Aug-19 13:06N 41°49' W 071°24'  

Dump ship's entire track history